Garuda B738 at Benjarmasin on Jun 11th 2020, flat nose tyres

Last Update: July 22, 2020 / 21:19:43 GMT/Zulu time

Bookmark this article
Incident Facts

Date of incident
Jun 11, 2020

Classification
Incident

Flight number
GA-532

Aircraft Registration
PK-GML

Aircraft Type
Boeing 737-800

ICAO Type Designator
B738

A Garuda Boeing 737-800, registration PK-GML performing flight GA-532 from Jakarta to Benjarmasin (Indonesia) with 37 people on board, landed on Benjarmasin's runway 10 and became disabled on the runway center line due to deflated nose tyres.

The airport reported the aircraft had received broken tyres. The passengers disembarked normally with the assistance of the airport team. The airport had experience heavy rain, just when the rain subsided the aircraft landed and suffered the occurrence.

The aircraft was later towed to the apron.

On Jul 22nd 2020 the NTSB reported identifying Banjarmasin as incident location: "The government of Indonesia has notified the NTSB of an incident involving a Boeing 737-800 airplane that occurred on June 11, 2020. The NTSB has appointed a U.S. Accredited Representative to assist the government of Ireland's investigation under the provisions of ICAO Annex 13."

No Metars are available at the time of the occurrence, only 3 hours later the Metars resume, available METARs:
WAOO 111100Z AUTO 19003KT 9999 NCD 26/25 Q1007=
WAOO 111030Z AUTO 17004KT 130V190 9999 NCD 26/25 Q1007=
WAOO 111000Z AUTO 15004KT 9999 NCD 26/25 Q1007=
WAOO 101500Z AUTO VRB02KT 7000 NCD 25/24 Q1009=
Incident Facts

Date of incident
Jun 11, 2020

Classification
Incident

Flight number
GA-532

Aircraft Registration
PK-GML

Aircraft Type
Boeing 737-800

ICAO Type Designator
B738

This article is published under license from Avherald.com. © of text by Avherald.com.
Article source

You can read 4 more free articles without a subscription.

Subscribe now and continue reading without any limits!

Are you a subscriber?
Login
Subscribe

Read unlimited articles and receive our daily update briefing. Gain better insights into what is happening in commercial aviation safety.

Free newsletter

Want to know more and stay ahead? Get our free weekly newsletter and join 4855 existing subscribers.

By subscribing, you accept our terms and conditions and confirm that you've read our privacy policy.

Send tip

Support AeroInside by sending a small tip amount.

Related articles

Newest articles

Subscribe today

Are you researching aviation incidents? Get access to AeroInside Insights, unlimited read access and receive the daily newsletter.

Pick your plan and subscribe

Partner

Blockaviation logo

A new way to document and demonstrate airworthiness compliance and aircraft value. Find out more.

Virtual Speech logo

Train yourself online in VR with the special course for aviation: "Crisis Communications: Airlines". Find out more.

Get updates

Never miss an article from AeroInside. Subscribe to our free weekly newsletter and join 4855 existing subscribers.

By subscribing, you accept our terms and conditions and that you've read our privacy policy.

AeroInside Blog
Popular aircraft
Airbus A320
Boeing 737-800
Boeing 737-800 MAX
Popular airlines
American Airlines
United
Delta
Air Canada
Lufthansa
British Airways